createdAt,value
2018-12-18T00:00:04.632Z,98577.14
2018-12-18T00:00:36.229Z,98573.30
2018-12-18T00:01:07.809Z,98579.23
2018-12-18T00:01:39.416Z,98578.41
2018-12-18T00:02:11.052Z,98573.73
2018-12-18T00:02:42.677Z,98574.16
2018-12-18T00:03:14.284Z,98572.45
2018-12-18T00:03:45.891Z,98568.62
2018-12-18T00:04:17.498Z,98573.31
2018-12-18T00:04:49.093Z,98575.02
2018-12-18T00:05:26.375Z,98568.66
2018-12-18T00:05:57.978Z,98563.13
2018-12-18T00:06:29.570Z,98562.31
2018-12-18T00:07:01.182Z,98570.41
2018-12-18T00:07:32.812Z,98565.30
2018-12-18T00:08:04.409Z,98569.98
2018-12-18T00:08:36.020Z,98564.83
2018-12-18T00:09:07.624Z,98566.14
2018-12-18T00:09:39.218Z,98567.00
2018-12-18T00:10:10.818Z,98565.72
2018-12-18T00:10:46.175Z,98564.45
2018-12-18T00:11:17.791Z,98565.30
2018-12-18T00:11:49.391Z,98568.70
2018-12-18T00:12:21.029Z,98568.27
2018-12-18T00:12:52.626Z,98563.98
2018-12-18T00:13:24.208Z,98568.67
2018-12-18T00:13:55.798Z,98567.85
2018-12-18T00:14:27.398Z,98566.58
2018-12-18T00:14:59.008Z,98571.27
2018-12-18T00:15:30.617Z,98577.23
2018-12-18T00:16:02.199Z,98569.13
2018-12-18T00:16:33.797Z,98572.55
2018-12-18T00:17:05.393Z,98535.35
2018-12-18T00:17:37.664Z,98570.84
2018-12-18T00:18:09.257Z,98563.17
2018-12-18T00:18:40.853Z,98567.00
2018-12-18T00:19:12.435Z,98568.23
2018-12-18T00:19:44.040Z,98567.38
2018-12-18T00:20:15.654Z,98569.94
2018-12-18T00:20:47.250Z,98567.80
2018-12-18T00:21:18.841Z,98572.50
2018-12-18T00:21:50.447Z,98568.67
2018-12-18T00:22:22.056Z,98568.27
2018-12-18T00:22:53.684Z,98561.89
2018-12-18T00:23:25.282Z,98570.41
2018-12-18T00:23:56.877Z,98567.39
2018-12-18T00:24:28.482Z,98566.58
2018-12-18T00:25:00.077Z,98571.27
2018-12-18T00:25:31.660Z,98566.14
2018-12-18T00:26:03.249Z,98564.02
2018-12-18T00:26:34.846Z,98568.27
2018-12-18T00:27:06.496Z,98571.23
2018-12-18T00:27:38.115Z,98569.09
2018-12-18T00:28:09.705Z,98572.45
2018-12-18T00:28:41.349Z,98571.59
2018-12-18T00:29:12.954Z,98564.78
2018-12-18T00:29:44.546Z,98564.35
2018-12-18T00:30:16.139Z,98568.19
2018-12-18T00:30:47.744Z,98571.17
2018-12-18T00:31:19.349Z,98569.00
2018-12-18T00:31:51.021Z,98568.95
2018-12-18T00:32:22.628Z,98568.09
2018-12-18T00:32:54.249Z,98566.81
2018-12-18T00:33:25.845Z,98570.66
2018-12-18T00:33:57.420Z,98568.95
2018-12-18T00:34:29.010Z,98570.66
2018-12-18T00:35:00.606Z,98572.36
2018-12-18T00:35:32.216Z,98565.97
2018-12-18T00:36:03.827Z,98564.69
2018-12-18T00:36:35.433Z,98569.38
2018-12-18T00:37:07.045Z,98572.36
2018-12-18T00:37:38.663Z,98531.01
2018-12-18T00:38:10.267Z,98569.81
2018-12-18T00:38:41.871Z,98572.37
2018-12-18T00:39:13.465Z,98567.67
2018-12-18T00:39:45.066Z,98575.77
2018-12-18T00:40:16.660Z,98572.41
2018-12-18T00:40:48.267Z,98572.83
2018-12-18T00:41:19.867Z,98580.47
2018-12-18T00:41:51.465Z,98572.36
2018-12-18T00:42:23.060Z,98572.78
2018-12-18T00:42:54.692Z,98578.31
2018-12-18T00:43:26.296Z,98578.73
2018-12-18T00:43:57.899Z,98579.55
2018-12-18T00:44:29.513Z,98581.26
2018-12-18T00:45:01.123Z,98577.45
2018-12-18T00:45:32.726Z,98555.45
2018-12-18T00:46:04.332Z,98577.04
2018-12-18T00:46:35.930Z,98575.33
2018-12-18T00:47:07.512Z,98568.93
2018-12-18T00:47:39.110Z,98573.63
2018-12-18T00:48:10.728Z,98574.91
2018-12-18T00:48:42.331Z,98576.60
2018-12-18T00:49:13.925Z,98566.81
2018-12-18T00:49:45.518Z,98575.29
2018-12-18T00:50:17.113Z,98572.30
2018-12-18T00:50:48.691Z,98568.94
2018-12-18T00:51:20.300Z,98574.91
2018-12-18T00:51:51.895Z,98573.63
2018-12-18T00:52:23.519Z,98565.06
2018-12-18T00:52:55.159Z,98565.91
2018-12-18T00:53:26.753Z,98573.11
2018-12-18T00:53:58.348Z,98571.41
2018-12-18T00:54:29.945Z,98574.81
2018-12-18T00:55:01.529Z,98571.41
2018-12-18T00:55:33.118Z,98574.86
2018-12-18T00:56:04.717Z,98578.70
2018-12-18T00:56:36.326Z,98568.52
2018-12-18T00:57:07.925Z,98569.75
2018-12-18T00:57:39.532Z,98566.80
2018-12-18T00:58:11.146Z,98571.92
2018-12-18T00:58:42.741Z,98569.36
2018-12-18T00:59:14.344Z,98570.64
2018-12-18T00:59:45.951Z,98569.31
2018-12-18T01:00:17.564Z,98565.91
2018-12-18T01:00:49.157Z,98568.03
2018-12-18T01:01:20.749Z,98572.30
2018-12-18T01:01:57.989Z,98570.17
2018-12-18T01:02:29.624Z,98579.55
2018-12-18T01:03:01.252Z,98579.55
2018-12-18T01:03:32.846Z,98576.14
2018-12-18T01:04:04.452Z,98577.42
2018-12-18T01:04:36.055Z,98583.81
2018-12-18T01:05:07.662Z,98581.69
2018-12-18T01:05:39.262Z,98563.97
2018-12-18T01:06:10.887Z,98584.70
2018-12-18T01:06:42.495Z,98577.03
2018-12-18T01:07:14.108Z,98577.90
2018-12-18T01:07:45.702Z,98579.60
2018-12-18T01:08:17.322Z,98578.78
2018-12-18T01:08:48.920Z,98581.73
2018-12-18T01:09:20.500Z,98577.05
2018-12-18T01:09:52.090Z,98578.78
2018-12-18T01:10:23.672Z,98583.45
2018-12-18T01:10:55.268Z,98577.05
2018-12-18T01:11:26.875Z,98577.48
2018-12-18T01:11:58.484Z,98577.05
2018-12-18T01:12:30.096Z,98576.20
2018-12-18T01:13:01.732Z,98576.63
2018-12-18T01:13:33.324Z,98575.39
2018-12-18T01:14:04.935Z,98569.85
2018-12-18T01:14:36.530Z,98574.97
2018-12-18T01:15:08.139Z,98583.49
2018-12-18T01:15:39.734Z,98573.27
2018-12-18T01:16:11.330Z,98577.14
2018-12-18T01:16:42.933Z,98577.53
2018-12-18T01:17:14.533Z,98577.57
2018-12-18T01:17:46.130Z,98576.25
2018-12-18T01:18:17.764Z,98583.06
2018-12-18T01:18:49.372Z,98585.19
2018-12-18T01:19:20.956Z,98580.52
2018-12-18T01:19:52.560Z,98586.94
2018-12-18T01:20:24.169Z,98588.22
2018-12-18T01:20:55.772Z,98583.49
2018-12-18T01:21:27.369Z,98586.52
2018-12-18T01:21:58.977Z,98586.95
2018-12-18T01:22:30.578Z,98587.38
2018-12-18T01:23:02.172Z,98588.27
2018-12-18T01:23:33.787Z,98589.13
2018-12-18T01:24:05.396Z,98588.27
2018-12-18T01:24:36.989Z,98586.14
2018-12-18T01:25:08.581Z,98589.55
2018-12-18T01:25:40.192Z,98593.39
2018-12-18T01:26:11.796Z,98592.95
2018-12-18T01:26:43.399Z,98590.39
2018-12-18T01:27:15.012Z,98594.62
2018-12-18T01:27:46.608Z,98593.39
2018-12-18T01:28:18.230Z,98591.72
2018-12-18T01:28:49.835Z,98600.16
2018-12-18T01:29:21.431Z,98596.79
2018-12-18T01:29:53.025Z,98595.94
2018-12-18T01:30:24.649Z,98592.95
2018-12-18T01:30:56.260Z,98598.92
2018-12-18T01:31:27.864Z,98599.31
2018-12-18T01:31:59.458Z,98597.22
2018-12-18T01:32:31.054Z,98602.72
2018-12-18T01:33:02.665Z,98602.72
2018-12-18T01:33:34.285Z,98604.42
2018-12-18T01:34:05.878Z,98599.36
2018-12-18T01:34:37.479Z,98599.36
2018-12-18T01:35:09.123Z,98594.71
2018-12-18T01:35:40.736Z,98595.18
2018-12-18T01:36:12.341Z,98596.88
2018-12-18T01:36:43.925Z,98597.34
2018-12-18T01:37:15.515Z,98590.96
2018-12-18T01:37:47.124Z,98596.92
2018-12-18T01:38:18.766Z,98597.34
2018-12-18T01:38:50.363Z,98599.48
2018-12-18T01:39:21.957Z,98599.91
2018-12-18T01:39:53.550Z,98598.20
2018-12-18T01:40:25.141Z,98596.50
2018-12-18T01:40:56.737Z,98594.71
2018-12-18T01:41:28.349Z,98593.44
2018-12-18T01:41:59.955Z,98600.64
2018-12-18T01:42:31.552Z,98600.67
2018-12-18T01:43:03.158Z,98597.22
2018-12-18T01:43:34.781Z,98600.20
2018-12-18T01:44:06.377Z,98601.48
2018-12-18T01:44:37.975Z,98601.91
2018-12-18T01:45:09.573Z,98599.82
2018-12-18T01:45:41.179Z,98592.19
2018-12-18T01:46:12.765Z,98597.70
2018-12-18T01:46:44.357Z,98606.22
2018-12-18T01:47:15.953Z,98601.53
2018-12-18T01:47:47.548Z,98596.45
2018-12-18T01:48:19.179Z,98599.83
2018-12-18T01:48:50.817Z,98597.73
2018-12-18T01:49:22.434Z,98601.14
2018-12-18T01:49:54.034Z,98607.53
2018-12-18T01:50:25.625Z,98602.85
2018-12-18T01:50:57.235Z,98602.42
2018-12-18T01:51:28.850Z,98601.99
2018-12-18T01:52:00.463Z,98608.39
2018-12-18T01:52:32.071Z,98603.70
2018-12-18T01:53:03.675Z,98613.88
2018-12-18T01:53:35.291Z,98609.58
2018-12-18T01:54:06.900Z,98608.27
2018-12-18T01:54:38.497Z,98609.54
2018-12-18T01:55:10.102Z,98609.54
2018-12-18T01:55:41.683Z,98610.00
2018-12-18T01:56:13.292Z,98607.41
2018-12-18T01:56:44.890Z,98609.12
2018-12-18T01:57:16.493Z,98609.97
2018-12-18T01:57:48.090Z,98610.39
2018-12-18T01:58:19.686Z,98608.72
2018-12-18T01:58:51.314Z,98604.46
2018-12-18T01:59:22.920Z,98607.02
2018-12-18T01:59:54.525Z,98607.88
2018-12-18T02:00:26.122Z,98602.72
2018-12-18T02:00:57.722Z,98606.55
2018-12-18T02:01:29.328Z,98605.27
2018-12-18T02:02:00.923Z,98609.97
2018-12-18T02:02:32.536Z,98607.84
2018-12-18T02:03:04.147Z,98604.42
2018-12-18T02:03:35.790Z,98602.33
2018-12-18T02:04:07.401Z,98604.46
2018-12-18T02:04:39.003Z,98604.46
2018-12-18T02:05:10.617Z,98600.20
2018-12-18T02:05:42.282Z,98587.17
2018-12-18T02:06:13.878Z,98603.62
2018-12-18T02:06:45.475Z,98611.75
2018-12-18T02:07:17.070Z,98609.62
2018-12-18T02:07:48.669Z,98610.05
2018-12-18T02:08:20.252Z,98605.36
2018-12-18T02:08:51.883Z,98607.88
2018-12-18T02:09:23.481Z,98612.56
2018-12-18T02:09:55.079Z,98610.02
2018-12-18T02:10:26.675Z,98603.66
2018-12-18T02:10:58.274Z,98605.75
2018-12-18T02:11:29.852Z,98604.47
2018-12-18T02:12:01.441Z,98602.34
2018-12-18T02:12:33.042Z,98610.82
2018-12-18T02:13:04.646Z,98611.16
2018-12-18T02:13:36.251Z,98605.19
2018-12-18T02:14:07.874Z,98603.52
2018-12-18T02:14:39.490Z,98609.07
2018-12-18T02:15:11.081Z,98610.81
2018-12-18T02:15:42.679Z,98599.77
2018-12-18T02:16:14.276Z,98606.59
2018-12-18T02:16:45.857Z,98606.21
2018-12-18T02:17:17.451Z,98602.38
2018-12-18T02:17:49.056Z,98605.80
2018-12-18T02:18:20.650Z,98607.11
2018-12-18T02:18:52.271Z,98603.27
2018-12-18T02:19:23.851Z,98602.84
2018-12-18T02:19:55.459Z,98609.67
2018-12-18T02:20:27.055Z,98604.56
2018-12-18T02:20:58.649Z,98605.02
2018-12-18T02:21:30.255Z,98601.61
2018-12-18T02:22:01.859Z,98599.06
2018-12-18T02:22:33.468Z,98603.70
2018-12-18T02:23:05.063Z,98603.28
2018-12-18T02:23:36.670Z,98600.33
2018-12-18T02:24:08.289Z,98601.19
2018-12-18T02:24:39.893Z,98596.96
2018-12-18T02:25:11.500Z,98601.61
2018-12-18T02:25:43.096Z,98596.96
2018-12-18T02:26:14.685Z,98603.32
2018-12-18T02:26:46.278Z,98600.34
2018-12-18T02:27:17.887Z,98602.94
2018-12-18T02:27:49.486Z,98601.62
2018-12-18T02:28:21.063Z,98605.91
2018-12-18T02:28:52.701Z,98601.23
2018-12-18T02:29:24.312Z,98597.81
2018-12-18T02:29:55.919Z,98601.23
2018-12-18T02:30:27.514Z,98608.05
2018-12-18T02:30:59.128Z,98604.64
2018-12-18T02:31:30.709Z,98605.06
2018-12-18T02:32:02.321Z,98614.87
2018-12-18T02:32:33.922Z,98604.64
2018-12-18T02:33:05.524Z,98606.34
2018-12-18T02:33:37.139Z,98604.64
2018-12-18T02:34:13.757Z,98601.66
2018-12-18T02:34:40.415Z,98602.52
2018-12-18T02:35:12.061Z,98600.38
2018-12-18T02:35:43.662Z,98599.10
2018-12-18T02:36:15.258Z,98598.25
2018-12-18T02:36:46.913Z,98601.27
2018-12-18T02:37:18.524Z,98597.02
2018-12-18T02:37:50.132Z,98595.31
2018-12-18T02:38:21.748Z,98601.28
2018-12-18T02:38:53.359Z,98596.59
2018-12-18T02:39:24.996Z,98588.95
2018-12-18T02:39:56.583Z,98596.63
2018-12-18T02:40:28.181Z,98594.07
2018-12-18T02:40:59.787Z,98593.65
2018-12-18T02:41:31.396Z,98593.22
2018-12-18T02:42:02.995Z,98603.45
2018-12-18T02:42:34.624Z,98595.77
2018-12-18T02:43:06.235Z,98597.48
2018-12-18T02:43:37.848Z,98586.02
2018-12-18T02:44:09.482Z,98594.54
2018-12-18T02:44:41.083Z,98602.59
2018-12-18T02:45:12.679Z,98595.78
2018-12-18T02:45:44.344Z,98596.20
2018-12-18T02:46:15.948Z,98591.94
2018-12-18T02:46:47.541Z,98593.22
2018-12-18T02:47:19.120Z,98603.92
2018-12-18T02:47:50.714Z,98592.41
2018-12-18T02:48:22.306Z,98596.67
2018-12-18T02:48:53.906Z,98592.41
2018-12-18T02:49:25.501Z,98590.28
2018-12-18T02:49:57.109Z,98590.70
2018-12-18T02:50:28.728Z,98590.31
2018-12-18T02:51:00.320Z,98594.55
2018-12-18T02:51:31.918Z,98590.28
2018-12-18T02:52:03.514Z,98589.47
2018-12-18T02:52:35.112Z,98584.78
2018-12-18T02:53:06.715Z,98586.91
2018-12-18T02:53:38.324Z,98595.02
2018-12-18T02:54:10.307Z,98591.59
2018-12-18T02:54:42.096Z,98589.04
2018-12-18T02:55:13.716Z,98596.67
2018-12-18T02:55:45.310Z,98589.42
2018-12-18T02:56:16.920Z,98575.11
2018-12-18T02:56:48.527Z,98590.24
2018-12-18T02:57:20.113Z,98587.69
2018-12-18T02:57:51.706Z,98597.06
2018-12-18T02:58:23.297Z,98594.50
2018-12-18T02:58:54.904Z,98597.91
2018-12-18T02:59:26.516Z,98607.75
2018-12-18T02:59:58.110Z,98599.22
2018-12-18T03:00:29.705Z,98602.21
2018-12-18T03:01:01.298Z,98603.49
2018-12-18T03:01:32.921Z,98607.28
2018-12-18T03:02:04.527Z,98604.17
2018-12-18T03:02:36.126Z,98601.70
2018-12-18T03:03:07.721Z,98608.98
2018-12-18T03:03:39.313Z,98604.77
2018-12-18T03:04:10.915Z,98606.59
2018-12-18T03:04:42.524Z,98609.20
2018-12-18T03:05:14.118Z,98603.27
2018-12-18T03:05:45.725Z,98604.94
2018-12-18T03:06:17.342Z,98606.63
2018-12-18T03:06:48.941Z,98604.05
2018-12-18T03:07:20.533Z,98606.17
2018-12-18T03:07:52.151Z,98605.74
2018-12-18T03:08:23.755Z,98610.42
2018-12-18T03:08:55.345Z,98604.04
2018-12-18T03:09:26.975Z,98601.05
2018-12-18T03:09:58.589Z,98604.00
2018-12-18T03:10:30.185Z,98606.94
2018-12-18T03:11:01.789Z,98602.64
2018-12-18T03:11:33.391Z,98605.19
2018-12-18T03:12:04.986Z,98607.70
2018-12-18T03:12:36.581Z,98606.00
2018-12-18T03:13:08.182Z,98600.84
2018-12-18T03:13:39.775Z,98602.17
2018-12-18T03:14:11.378Z,98601.27
2018-12-18T03:14:42.994Z,98608.09
2018-12-18T03:15:14.590Z,98610.64
2018-12-18T03:15:46.185Z,98604.69
2018-12-18T03:16:17.783Z,98602.94
2018-12-18T03:16:49.491Z,98608.91
2018-12-18T03:17:21.099Z,98604.64
2018-12-18T03:17:52.693Z,98603.79
2018-12-18T03:18:24.291Z,98601.23
2018-12-18T03:18:55.885Z,98609.33
2018-12-18T03:19:27.526Z,98608.91
2018-12-18T03:19:59.123Z,98609.80
2018-12-18T03:20:30.717Z,98612.78
2018-12-18T03:21:02.311Z,98607.20
2018-12-18T03:21:33.909Z,98612.30
2018-12-18T03:22:05.533Z,98609.29
2018-12-18T03:22:37.130Z,98605.91
2018-12-18T03:23:08.716Z,98605.03
2018-12-18T03:23:40.319Z,98602.50
2018-12-18T03:24:11.923Z,98603.79
2018-12-18T03:24:43.541Z,98607.63
2018-12-18T03:25:15.149Z,98608.90
2018-12-18T03:25:46.748Z,98611.03
2018-12-18T03:26:18.352Z,98604.59
2018-12-18T03:26:49.958Z,98570.00
2018-12-18T03:27:21.572Z,98604.17
2018-12-18T03:27:53.180Z,98603.70
2018-12-18T03:28:24.767Z,98606.69
2018-12-18T03:28:56.366Z,98604.98
2018-12-18T03:29:27.957Z,98601.57
2018-12-18T03:29:59.565Z,98601.57
2018-12-18T03:30:31.163Z,98599.44
2018-12-18T03:31:02.785Z,98604.55
2018-12-18T03:31:34.397Z,98596.45
2018-12-18T03:32:05.989Z,98603.66
2018-12-18T03:32:37.581Z,98598.55
2018-12-18T03:33:09.184Z,98599.86
2018-12-18T03:33:40.791Z,98603.27
2018-12-18T03:34:12.401Z,98604.13
2018-12-18T03:34:44.037Z,98602.85
2018-12-18T03:35:15.634Z,98600.29
2018-12-18T03:35:47.218Z,98602.38
2018-12-18T03:36:18.814Z,98601.95
2018-12-18T03:36:50.452Z,98605.79
2018-12-18T03:37:22.050Z,98597.27
2018-12-18T03:37:53.641Z,98606.64
2018-12-18T03:38:25.233Z,98604.51
2018-12-18T03:38:56.825Z,98607.50
2018-12-18T03:39:28.437Z,98603.66
2018-12-18T03:40:00.076Z,98604.94
2018-12-18T03:40:31.725Z,98604.89
2018-12-18T03:41:03.313Z,98602.20
2018-12-18T03:41:34.910Z,98600.77
2018-12-18T03:42:06.521Z,98604.13
2018-12-18T03:42:38.114Z,98596.78
2018-12-18T03:43:09.708Z,98597.08
2018-12-18T03:43:41.303Z,98602.59
2018-12-18T03:44:12.899Z,98607.06
2018-12-18T03:44:44.541Z,98601.63
2018-12-18T03:45:16.133Z,98607.19
2018-12-18T03:45:47.725Z,98613.54
2018-12-18T03:46:19.328Z,98606.73
2018-12-18T03:46:50.935Z,98613.48
2018-12-18T03:47:22.548Z,98610.03
2018-12-18T03:47:54.160Z,98612.55
2018-12-18T03:48:25.761Z,98607.41
2018-12-18T03:48:57.363Z,98605.69
2018-12-18T03:49:28.968Z,98604.40
2018-12-18T03:50:00.608Z,98606.90
2018-12-18T03:50:32.222Z,98608.59
2018-12-18T03:51:03.805Z,98603.47
2018-12-18T03:51:35.402Z,98603.41
2018-12-18T03:52:06.993Z,98606.75
2018-12-18T03:52:38.590Z,98600.06
2018-12-18T03:53:10.293Z,98602.78
2018-12-18T03:53:41.913Z,98605.42
2018-12-18T03:54:13.510Z,98596.55
2018-12-18T03:54:45.131Z,98604.97
2018-12-18T03:55:16.742Z,98599.30
2018-12-18T03:55:48.338Z,98601.64
2018-12-18T03:56:19.934Z,98590.37
2018-12-18T03:56:51.529Z,98593.95
2018-12-18T03:57:23.130Z,98592.42
2018-12-18T03:57:54.744Z,98591.44
2018-12-18T03:58:26.344Z,98594.23
2018-12-18T03:58:57.947Z,98594.47
2018-12-18T03:59:29.760Z,98593.94
2018-12-18T04:00:01.695Z,98593.34
2018-12-18T04:00:33.429Z,98597.42
2018-12-18T04:01:05.035Z,98593.05
2018-12-18T04:01:36.630Z,98614.27
2018-12-18T04:02:08.222Z,98600.14
2018-12-18T04:02:39.818Z,98599.67
2018-12-18T04:03:11.419Z,98592.78
2018-12-18T04:03:43.014Z,98590.95
2018-12-18T04:04:14.624Z,98591.26
2018-12-18T04:04:46.241Z,98590.75
2018-12-18T04:05:17.865Z,98593.22
2018-12-18T04:05:49.472Z,98594.45
2018-12-18T04:06:21.059Z,98594.80
2018-12-18T04:06:52.672Z,98595.18
2018-12-18T04:07:24.274Z,98595.95
2018-12-18T04:07:55.866Z,98595.84
2018-12-18T04:08:27.466Z,98595.41
2018-12-18T04:08:59.063Z,98602.15
2018-12-18T04:09:30.671Z,98594.47
2018-12-18T04:10:02.309Z,98599.96
2018-12-18T04:10:33.906Z,98598.68
2018-12-18T04:11:05.517Z,98597.32
2018-12-18T04:11:37.114Z,98601.11
2018-12-18T04:12:08.719Z,98598.08
2018-12-18T04:12:40.320Z,98603.58
2018-12-18T04:13:11.904Z,98605.27
2018-12-18T04:13:43.508Z,98600.97
2018-12-18T04:14:15.103Z,98600.11
2018-12-18T04:14:46.701Z,98596.66
2018-12-18T04:15:18.332Z,98597.04
2018-12-18T04:15:49.922Z,98594.43
2018-12-18T04:16:21.530Z,98597.83
2018-12-18T04:16:53.126Z,98599.11
2018-12-18T04:17:24.727Z,98598.69
2018-12-18T04:17:56.329Z,98598.27
2018-12-18T04:18:27.964Z,98617.45
2018-12-18T04:18:59.574Z,98601.20
2018-12-18T04:19:31.167Z,98602.86
2018-12-18T04:20:02.793Z,98606.27
2018-12-18T04:20:34.410Z,98604.13
2018-12-18T04:21:06.007Z,98600.25
2018-12-18T04:21:37.601Z,98603.67
2018-12-18T04:22:09.201Z,98601.95
2018-12-18T04:22:40.798Z,98595.55
2018-12-18T04:23:12.404Z,98600.68
2018-12-18T04:23:44.001Z,98599.02
2018-12-18T04:24:15.598Z,98603.28
2018-12-18T04:24:47.204Z,98599.44
2018-12-18T04:25:18.827Z,98604.98
2018-12-18T04:25:50.426Z,98599.87
2018-12-18T04:26:22.022Z,98600.77
2018-12-18T04:26:53.632Z,98601.63
2018-12-18T04:27:25.239Z,98605.52
2018-12-18T04:27:56.826Z,98602.58
2018-12-18T04:28:28.435Z,98602.62
2018-12-18T04:29:00.044Z,98607.32
2018-12-18T04:29:31.642Z,98605.70
2018-12-18T04:30:03.240Z,98606.13
2018-12-18T04:30:34.873Z,98606.18
2018-12-18T04:31:06.498Z,98605.80
2018-12-18T04:31:38.095Z,98602.86
2018-12-18T04:32:09.691Z,98603.76
2018-12-18T04:32:41.268Z,98609.77
2018-12-18T04:33:12.866Z,98606.41
2018-12-18T04:33:44.460Z,98600.06
2018-12-18T04:34:16.063Z,98604.80
2018-12-18T04:34:47.647Z,98606.98
2018-12-18T04:35:19.287Z,98603.61
2018-12-18T04:35:50.883Z,98605.36
2018-12-18T04:36:22.478Z,98610.90
2018-12-18T04:36:54.254Z,98608.81
2018-12-18T04:37:25.864Z,98609.28
2018-12-18T04:37:57.453Z,98608.44
2018-12-18T04:38:29.063Z,98611.46
2018-12-18T04:39:00.660Z,98613.59
2018-12-18T04:39:32.262Z,98617.43
2018-12-18T04:40:03.840Z,98614.91
2018-12-18T04:40:35.459Z,98610.70
2018-12-18T04:41:07.063Z,98606.94
2018-12-18T04:41:38.648Z,98611.20
2018-12-18T04:42:10.256Z,98605.27
2018-12-18T04:42:41.866Z,98610.39
2018-12-18T04:43:13.479Z,98616.39
2018-12-18T04:43:45.078Z,98608.73
2018-12-18T04:44:16.673Z,98608.34
2018-12-18T04:44:48.275Z,98614.73
2018-12-18T04:45:19.858Z,98616.05
2018-12-18T04:45:51.463Z,98610.12
2018-12-18T04:46:23.058Z,98612.68
2018-12-18T04:46:54.659Z,98609.70
2018-12-18T04:47:26.268Z,98611.87
2018-12-18T04:47:57.865Z,98612.26
2018-12-18T04:48:29.473Z,98613.14
2018-12-18T04:49:01.075Z,98612.72
2018-12-18T04:49:32.705Z,98611.02
2018-12-18T04:50:04.307Z,98616.13
2018-12-18T04:50:35.933Z,98614.89
2018-12-18T04:51:07.527Z,98614.89
2018-12-18T04:51:39.132Z,98611.52
2018-12-18T04:52:10.754Z,98615.78
2018-12-18T04:52:42.356Z,98611.09
2018-12-18T04:53:13.950Z,98609.39
2018-12-18T04:53:45.553Z,98614.08
2018-12-18T04:54:17.283Z,98610.67
2018-12-18T04:54:48.878Z,98618.80
2018-12-18T04:55:20.478Z,98606.87
2018-12-18T04:55:52.083Z,98615.86
2018-12-18T04:56:23.682Z,98611.17
2018-12-18T04:56:55.287Z,98617.56
2018-12-18T04:57:26.891Z,98619.27
2018-12-18T04:57:58.476Z,98615.86
2018-12-18T04:58:30.084Z,98617.98
2018-12-18T04:59:01.688Z,98612.88
2018-12-18T04:59:33.295Z,98613.77
2018-12-18T05:00:04.902Z,98607.80
2018-12-18T05:00:36.675Z,98614.19
2018-12-18T05:01:08.290Z,98615.47
2018-12-18T05:01:39.889Z,98612.95
2018-12-18T05:02:11.478Z,98615.08
2018-12-18T05:02:43.061Z,98615.08
2018-12-18T05:03:14.674Z,98577.45
2018-12-18T05:03:46.486Z,98612.98
2018-12-18T05:04:18.134Z,98614.41
2018-12-18T05:04:50.553Z,98615.55
2018-12-18T05:05:21.404Z,98613.02
2018-12-18T05:05:53.011Z,98617.25
2018-12-18T05:06:24.600Z,98613.45
2018-12-18T05:06:56.190Z,98618.14
2018-12-18T05:07:27.803Z,98618.14
2018-12-18T05:07:59.411Z,98616.05
2018-12-18T05:08:31.016Z,98610.05
2018-12-18T05:09:02.610Z,98620.69
2018-12-18T05:09:34.215Z,98620.69
2018-12-18T05:10:05.817Z,98618.59
2018-12-18T05:10:37.439Z,98625.41
2018-12-18T05:11:09.062Z,98616.90
2018-12-18T05:11:40.672Z,98620.30
2018-12-18T05:12:12.287Z,98624.59
2018-12-18T05:12:43.897Z,98626.34
2018-12-18T05:13:15.522Z,98625.45
2018-12-18T05:13:47.144Z,98627.16
2018-12-18T05:14:18.728Z,98626.30
2018-12-18T05:14:50.327Z,98631.84
2018-12-18T05:15:21.921Z,98630.16
2018-12-18T05:15:53.531Z,98628.05
2018-12-18T05:16:25.141Z,98628.89
2018-12-18T05:16:56.761Z,98624.63
2018-12-18T05:17:28.376Z,98628.89
2018-12-18T05:17:59.970Z,98629.74
2018-12-18T05:18:31.572Z,98629.35
2018-12-18T05:19:03.179Z,98632.76
2018-12-18T05:19:34.788Z,98628.47
2018-12-18T05:20:06.376Z,98634.86
2018-12-18T05:20:37.972Z,98635.73
2018-12-18T05:21:09.589Z,98628.47
2018-12-18T05:21:41.271Z,98626.38
2018-12-18T05:22:12.884Z,98633.19
2018-12-18T05:22:44.496Z,98625.98
2018-12-18T05:23:16.097Z,98635.74
2018-12-18T05:23:47.703Z,98631.91
2018-12-18T05:24:19.294Z,98634.47
2018-12-18T05:24:50.892Z,98625.95
2018-12-18T05:25:22.485Z,98618.00
2018-12-18T05:25:54.096Z,98633.61
2018-12-18T05:26:25.715Z,98631.91
2018-12-18T05:26:57.312Z,98626.38
2018-12-18T05:27:28.912Z,98629.36
2018-12-18T05:28:00.515Z,98625.12
2018-12-18T05:28:33.201Z,98633.61
2018-12-18T05:29:04.809Z,98636.20
2018-12-18T05:29:36.395Z,98632.34
2018-12-18T05:30:07.983Z,98635.31
2018-12-18T05:30:39.582Z,98630.66
2018-12-18T05:31:11.205Z,98631.95
2018-12-18T05:31:42.802Z,98631.95
2018-12-18T05:32:14.402Z,98637.91
2018-12-18T05:32:46.008Z,98635.38
2018-12-18T05:33:17.621Z,98632.41
2018-12-18T05:33:49.232Z,98638.76
2018-12-18T05:34:20.844Z,98634.92
2018-12-18T05:34:56.567Z,98635.88
2018-12-18T05:35:24.124Z,98640.03
2018-12-18T05:35:55.777Z,98637.52
2018-12-18T05:36:27.389Z,98635.38
2018-12-18T05:36:58.983Z,98635.77
2018-12-18T05:37:30.585Z,98638.33
2018-12-18T05:38:02.200Z,98637.44
2018-12-18T05:38:33.784Z,98638.30
2018-12-18T05:39:05.395Z,98641.70
2018-12-18T05:39:37.004Z,98642.09
2018-12-18T05:40:08.635Z,98644.68
2018-12-18T05:40:40.216Z,98643.37
2018-12-18T05:41:11.873Z,98641.66
2018-12-18T05:41:43.460Z,98641.66
2018-12-18T05:42:15.063Z,98638.65
2018-12-18T05:42:46.667Z,98636.52
2018-12-18T05:43:18.273Z,98644.16
2018-12-18T05:43:49.887Z,98642.02
2018-12-18T05:44:21.481Z,98641.56
2018-12-18T05:44:53.083Z,98619.56
2018-12-18T05:45:24.677Z,98641.52
2018-12-18T05:45:56.269Z,98618.67
2018-12-18T05:46:27.899Z,98641.45
2018-12-18T05:46:59.502Z,98619.48
2018-12-18T05:47:31.099Z,98643.55
2018-12-18T05:48:02.696Z,98638.39
2018-12-18T05:48:34.294Z,98644.75
2018-12-18T05:49:05.895Z,98641.34
2018-12-18T05:49:37.609Z,98643.00
2018-12-18T05:50:09.228Z,98639.13
2018-12-18T05:50:40.846Z,98644.20
2018-12-18T05:51:12.483Z,98634.41
2018-12-18T05:51:44.082Z,98648.00
2018-12-18T05:52:15.678Z,98636.89
2018-12-18T05:52:47.284Z,98646.69
2018-12-18T05:53:18.878Z,98643.62
2018-12-18T05:53:50.468Z,98647.84
2018-12-18T05:54:22.071Z,98648.23
2018-12-18T05:54:53.673Z,98649.05
2018-12-18T05:55:25.277Z,98646.91
2018-12-18T05:55:56.860Z,98647.30
2018-12-18T05:56:28.466Z,98649.39
2018-12-18T05:57:00.057Z,98641.76
2018-12-18T05:57:31.646Z,98647.68
2018-12-18T05:58:03.238Z,98652.34
2018-12-18T05:58:34.840Z,98654.47
2018-12-18T05:59:06.448Z,98645.13
2018-12-18T05:59:38.032Z,98650.63
2018-12-18T06:00:09.622Z,98649.31
2018-12-18T06:00:41.203Z,98651.44
2018-12-18T06:01:12.835Z,98648.45
2018-12-18T06:01:44.464Z,98676.97
2018-12-18T06:02:16.052Z,98647.56
2018-12-18T06:02:47.645Z,98649.30
2018-12-18T06:03:19.238Z,98648.88
2018-12-18T06:03:50.835Z,98648.45
2018-12-18T06:04:22.440Z,98644.62
2018-12-18T06:04:54.033Z,98647.18
2018-12-18T06:05:25.625Z,98641.63
2018-12-18T06:05:57.224Z,98643.80
2018-12-18T06:06:28.861Z,98644.66
2018-12-18T06:07:00.470Z,98646.36
2018-12-18T06:07:32.087Z,98643.39
2018-12-18T06:08:03.696Z,98645.94
2018-12-18T06:08:35.289Z,98641.72
2018-12-18T06:09:06.887Z,98648.97
2018-12-18T06:09:38.501Z,98643.03
2018-12-18T06:10:10.102Z,98647.73
2018-12-18T06:10:41.697Z,98643.89
2018-12-18T06:11:13.290Z,98646.48